Time;durP1;ratioP1;P1;durP2;ratioP2;P2;SDS_P1;SDS_P2;PMS_P1;PMS_P2;Temp;Humidity;BMP_temperature;BMP_pressure;BME280_temperature;BME280_humidity;BME280_pressure;Samples;Min_cycle;Max_cycle;Signal;HPM_P1;HPM_P2
2022/08/10 00:01:18;;;;;;;;;;;;;;;27.97;32.35;99638.78;2072865;28;19917;-62
2022/08/10 00:02:18;;;;;;;;;;;;;;;27.98;32.45;99639.66;2070942;28;20757;-62
2022/08/10 00:03:19;;;;;;;;;;;;;;;27.96;32.50;99642.66;2076354;28;20404;-62
2022/08/10 00:04:20;;;;;;;;;;;;;;;27.97;32.48;99643.50;2072051;28;19913;-62
2022/08/10 00:05:20;;;;;;;;;;;;;;;27.97;32.46;99638.78;2073213;28;19923;-62
2022/08/10 00:06:21;;;;;;;;;;;;;;;27.97;32.50;99644.34;2075176;28;19944;-60
2022/08/10 00:07:21;;;;;;;;;;;;;;;27.97;32.43;99638.78;2074255;28;19921;-61
2022/08/10 00:08:23;;;;;;;;;;;;;;;27.98;32.45;99645.22;2075334;28;19917;-61
2022/08/10 00:09:24;;;;;;;;;;;;;;;27.96;32.36;99645.41;2068251;28;19917;-61
2022/08/10 00:10:24;;;;;;;;;;;;;;;27.97;32.41;99643.50;2068840;28;19917;-61
2022/08/10 00:11:25;;;;;;;;;;;;;;;27.97;32.31;99643.50;2074190;28;19960;-61
2022/08/10 00:12:25;;;;;;;;;;;;;;;27.97;32.43;99643.50;2074857;28;20024;-61
2022/08/10 00:13:25;;;;;;;;;;;;;;;27.97;32.21;99646.25;2070774;28;19917;-61
2022/08/10 00:14:26;;;;;;;;;;;;;;;27.97;32.37;99637.94;2073704;28;19909;-62
2022/08/10 00:15:26;;;;;;;;;;;;;;;27.96;32.27;99641.81;2069781;28;19923;-62
2022/08/10 00:16:26;;;;;;;;;;;;;;;27.95;32.36;99638.19;2076492;28;19956;-61
2022/08/10 00:17:27;;;;;;;;;;;;;;;27.96;32.35;99641.81;2072667;28;19967;-61
2022/08/10 00:18:27;;;;;;;;;;;;;;;27.95;32.37;99640.09;2076530;28;19913;-61
2022/08/10 00:19:27;;;;;;;;;;;;;;;27.95;32.32;99637.31;2074855;28;19967;-61
2022/08/10 00:20:28;;;;;;;;;;;;;;;27.94;32.30;99643.94;2071507;28;19924;-61
2022/08/10 00:21:28;;;;;;;;;;;;;;;27.94;32.38;99632.84;2071629;28;19924;-61
2022/08/10 00:22:28;;;;;;;;;;;;;;;27.93;32.26;99631.16;2077306;28;20012;-61
2022/08/10 00:23:29;;;;;;;;;;;;;;;27.93;32.46;99637.56;2073570;28;19920;-61
2022/08/10 00:24:29;;;;;;;;;;;;;;;27.94;32.44;99635.63;2076053;28;19956;-62
2022/08/10 00:25:29;;;;;;;;;;;;;;;27.94;32.25;99632.84;2072988;28;19908;-61
2022/08/10 00:26:29;;;;;;;;;;;;;;;27.94;32.57;99633.69;2076150;28;19916;-61
2022/08/10 00:27:30;;;;;;;;;;;;;;;27.94;32.37;99632.84;2075283;28;19960;-61
2022/08/10 00:28:30;;;;;;;;;;;;;;;27.94;32.53;99633.69;2084522;28;20400;-61
2022/08/10 00:29:31;;;;;;;;;;;;;;;27.93;32.36;99633.94;2083148;28;19916;-61
2022/08/10 00:30:31;;;;;;;;;;;;;;;27.94;32.39;99628.16;2075012;28;20047;-61
2022/08/10 00:31:32;;;;;;;;;;;;;;;27.94;32.65;99630.09;2078967;28;19916;-62
2022/08/10 00:32:32;;;;;;;;;;;;;;;27.93;32.49;99625.63;2082842;28;19924;-61
2022/08/10 00:33:32;;;;;;;;;;;;;;;27.92;32.69;99622.00;2076161;28;20006;-61
2022/08/10 00:34:33;;;;;;;;;;;;;;;27.92;32.59;99618.38;2071146;28;20007;-61
2022/08/10 00:35:33;;;;;;;;;;;;;;;27.93;32.53;99620.09;2075233;28;20023;-62
2022/08/10 00:36:34;;;;;;;;;;;;;;;27.93;32.77;99620.09;2082959;28;19913;-62
2022/08/10 00:37:34;;;;;;;;;;;;;;;27.92;32.47;99629.44;2084260;28;20011;-62
2022/08/10 00:38:35;;;;;;;;;;;;;;;27.92;32.63;99623.91;2083452;28;20905;-62
2022/08/10 00:39:36;;;;;;;;;;;;;;;27.93;32.47;99625.63;2078773;28;20012;-62
2022/08/10 00:40:36;;;;;;;;;;;;;;;27.93;32.66;99628.41;2080780;28;19913;-62
2022/08/10 00:41:36;;;;;;;;;;;;;;;27.92;32.64;99623.91;2080567;28;19924;-62
2022/08/10 00:42:37;;;;;;;;;;;;;;;27.92;32.66;99623.91;2074806;28;19916;-62
2022/08/10 00:43:37;;;;;;;;;;;;;;;27.93;32.54;99625.63;2082694;28;19917;-62
2022/08/10 00:44:39;;;;;;;;;;;;;;;27.92;32.53;99629.44;2082936;28;19908;-62
2022/08/10 00:45:39;;;;;;;;;;;;;;;27.92;32.73;99621.16;2075828;28;19921;-62
2022/08/10 00:46:39;;;;;;;;;;;;;;;27.92;32.67;99623.91;2082399;28;19916;-62
2022/08/10 00:47:39;;;;;;;;;;;;;;;27.91;32.72;99616.69;2082130;28;20033;-61
2022/08/10 00:48:40;;;;;;;;;;;;;;;27.90;32.67;99618.59;2077269;28;19920;-62
2022/08/10 00:49:41;;;;;;;;;;;;;;;27.90;32.71;99621.34;2071026;28;19924;-62
2022/08/10 00:50:41;;;;;;;;;;;;;;;27.91;32.69;99619.47;2070745;28;19975;-62
2022/08/10 00:51:41;;;;;;;;;;;;;;;27.91;32.76;99627.75;2078780;28;19918;-62
2022/08/10 00:52:42;;;;;;;;;;;;;;;27.90;32.72;99626.03;2077802;28;19923;-62
2022/08/10 00:53:42;;;;;;;;;;;;;;;27.90;32.66;99623.28;2076231;28;19923;-62
2022/08/10 00:54:43;;;;;;;;;;;;;;;27.89;32.60;99622.44;2076915;28;19917;-62
2022/08/10 00:55:43;;;;;;;;;;;;;;;27.89;32.48;99616.06;2076896;28;19908;-62
2022/08/10 00:56:43;;;;;;;;;;;;;;;27.89;32.58;99625.22;2077736;28;20142;-61
2022/08/10 00:57:45;;;;;;;;;;;;;;;27.89;32.63;99624.34;2075616;28;19916;-62
2022/08/10 00:58:45;;;;;;;;;;;;;;;27.89;32.59;99618.81;2077355;28;19909;-62
2022/08/10 00:59:46;;;;;;;;;;;;;;;27.88;32.42;99614.34;2078051;28;19996;-62
2022/08/10 01:00:47;;;;;;;;;;;;;;;27.88;32.48;99617.09;2079065;28;20265;-62
2022/08/10 01:01:47;;;;;;;;;;;;;;;27.87;32.46;99613.50;2079109;28;19912;-62
2022/08/10 01:02:47;;;;;;;;;;;;;;;27.88;32.46;99617.09;2082852;28;19908;-62
2022/08/10 01:03:47;;;;;;;;;;;;;;;27.88;32.55;99611.56;2083097;28;20050;-62
2022/08/10 01:04:48;;;;;;;;;;;;;;;27.88;32.50;99617.97;2079467;28;20353;-62
2022/08/10 01:05:58;;;;;;;;;;;;;;;27.88;32.61;99611.56;2076300;28;20462;-62
2022/08/10 01:07:07;;;;;;;;;;;;;;;27.88;32.56;99617.09;2076238;28;19967;-62
2022/08/10 01:08:14;;;;;;;;;;;;;;;27.88;32.55;99617.97;2079524;28;20515;-62
2022/08/10 01:09:40;;;;;;;;;;;;;;;27.88;32.50;99614.34;2083535;28;20014;-62
2022/08/10 01:10:43;;;;;;;;;;;;;;;27.87;32.69;99619.03;2054676;28;19989;-62
2022/08/10 01:11:55;;;;;;;;;;;;;;;27.88;32.75;99622.63;2075489;28;20607;-62
2022/08/10 01:13:00;;;;;;;;;;;;;;;27.87;32.71;99616.25;2078437;28;19966;-62
2022/08/10 01:14:13;;;;;;;;;;;;;;;27.87;32.82;99621.81;2080740;28;19965;-62
2022/08/10 01:15:37;;;;;;;;;;;;;;;27.87;32.69;99615.41;2076987;28;20462;-62
2022/08/10 01:16:51;;;;;;;;;;;;;;;27.87;32.78;99620.97;2068507;28;20236;-62
2022/08/10 01:18:12;;;;;;;;;;;;;;;27.87;32.62;99615.41;2081394;28;19923;-62
2022/08/10 01:19:31;;;;;;;;;;;;;;;27.86;32.69;99613.72;2073461;28;19916;-62
2022/08/10 01:20:51;;;;;;;;;;;;;;;27.87;32.57;99620.97;2071970;28;19913;-62
2022/08/10 01:21:51;;;;;;;;;;;;;;;27.86;32.72;99619.25;2070905;28;20279;-62
2022/08/10 01:23:01;;;;;;;;;;;;;;;27.86;32.93;99613.72;2082378;28;19943;-62
2022/08/10 01:24:04;;;;;;;;;;;;;;;27.85;32.89;99617.56;2077886;28;20020;-62
2022/08/10 01:25:23;;;;;;;;;;;;;;;27.85;32.72;99623.94;2077672;28;19963;-62
2022/08/10 01:26:33;;;;;;;;;;;;;;;27.85;32.84;99618.38;2084041;28;19917;-62
2022/08/10 01:27:46;;;;;;;;;;;;;;;27.85;32.84;99620.31;2083226;28;19916;-62
2022/08/10 01:28:55;;;;;;;;;;;;;;;27.85;32.89;99623.09;2079694;28;19936;-62
2022/08/10 01:29:55;;;;;;;;;;;;;;;27.85;32.77;99623.09;2077160;28;20454;-62
2022/08/10 01:30:57;;;;;;;;;;;;;;;27.85;32.64;99625.84;2077674;28;20590;-62
2022/08/10 01:32:01;;;;;;;;;;;;;;;27.84;32.76;99627.78;2077862;28;20477;-62
2022/08/10 01:33:09;;;;;;;;;;;;;;;27.84;32.75;99626.94;2077018;28;19923;-62
2022/08/10 01:34:16;;;;;;;;;;;;;;;27.84;32.84;99629.72;2082860;28;19969;-62
2022/08/10 01:35:30;;;;;;;;;;;;;;;27.83;32.67;99631.63;2079624;28;20508;-62
2022/08/10 01:36:34;;;;;;;;;;;;;;;27.83;32.80;99626.09;2081027;28;20298;-62
2022/08/10 01:37:35;;;;;;;;;;;;;;;27.83;32.84;99628.00;2076300;28;19920;-62
2022/08/10 01:38:41;;;;;;;;;;;;;;;27.82;32.72;99624.38;2078343;28;20402;-62
2022/08/10 01:39:44;;;;;;;;;;;;;;;27.82;32.59;99627.16;2077823;28;20226;-62
2022/08/10 01:40:47;;;;;;;;;;;;;;;27.82;33.03;99623.50;2085326;28;19916;-62
2022/08/10 01:41:49;;;;;;;;;;;;;;;27.82;32.77;99626.28;2080892;28;20778;-62
2022/08/10 01:42:51;;;;;;;;;;;;;;;27.82;32.84;99634.56;2083504;28;19931;-62
2022/08/10 01:43:57;;;;;;;;;;;;;;;27.82;32.84;99623.50;2082826;28;19909;-62
2022/08/10 01:45:03;;;;;;;;;;;;;;;27.82;32.68;99626.28;2081067;28;19966;-62
2022/08/10 01:46:04;;;;;;;;;;;;;;;27.82;32.76;99618.84;2082853;28;19917;-62
2022/08/10 01:48:45;;;;;;;;;;;;;;;27.80;32.65;99621.78;2083093;28;20665;-62
2022/08/10 01:49:45;;;;;;;;;;;;;;;27.82;32.85;99624.38;2078895;28;19913;-62
2022/08/10 01:50:47;;;;;;;;;;;;;;;27.80;32.91;99621.78;2082268;28;20019;-62
2022/08/10 01:51:55;;;;;;;;;;;;;;;27.78;32.74;99621.19;2080654;28;19982;-61
2022/08/10 01:52:59;;;;;;;;;;;;;;;27.79;32.84;99625.63;2077770;28;19916;-62
2022/08/10 01:54:07;;;;;;;;;;;;;;;27.79;32.67;99628.41;2083550;28;19975;-62
2022/08/10 01:55:09;;;;;;;;;;;;;;;27.79;32.83;99625.63;2073421;28;19920;-62
2022/08/10 01:56:12;;;;;;;;;;;;;;;27.79;32.71;99631.16;2074667;28;19923;-62
2022/08/10 01:57:13;;;;;;;;;;;;;;;27.79;32.87;99636.72;2075712;28;20383;-62
2022/08/10 01:58:15;;;;;;;;;;;;;;;27.77;32.72;99633.31;2078422;28;19923;-62
2022/08/10 01:59:36;;;;;;;;;;;;;;;27.78;32.71;99637.78;2079438;28;19916;-62
2022/08/10 02:00:38;;;;;;;;;;;;;;;27.78;32.58;99639.69;2081032;28;20358;-62
2022/08/10 02:01:46;;;;;;;;;;;;;;;27.78;32.61;99640.56;2079259;28;19929;-62
2022/08/10 02:02:48;;;;;;;;;;;;;;;27.79;32.75;99641.41;2077562;28;20490;-62
2022/08/10 02:03:49;;;;;;;;;;;;;;;27.78;32.79;99634.16;2078264;28;19919;-62
2022/08/10 02:04:50;;;;;;;;;;;;;;;27.79;32.73;99642.25;2082411;28;20481;-62
2022/08/10 02:05:53;;;;;;;;;;;;;;;27.78;32.82;99640.56;2079228;28;20375;-62
2022/08/10 02:06:54;;;;;;;;;;;;;;;27.77;32.82;99641.63;2078509;28;20339;-62
2022/08/10 02:07:56;;;;;;;;;;;;;;;27.78;32.82;99643.34;2075216;28;19917;-62
2022/08/10 02:08:58;;;;;;;;;;;;;;;27.77;32.94;99638.84;2075488;28;19916;-62
2022/08/10 02:10:01;;;;;;;;;;;;;;;27.77;32.88;99644.38;2078938;28;19904;-62
2022/08/10 02:11:02;;;;;;;;;;;;;;;27.77;32.77;99640.78;2069760;28;20039;-62
2022/08/10 02:12:05;;;;;;;;;;;;;;;27.76;32.71;99637.16;2072567;28;19917;-62
2022/08/10 02:13:06;;;;;;;;;;;;;;;27.76;32.67;99642.69;2078337;28;19923;-62
2022/08/10 02:14:07;;;;;;;;;;;;;;;27.75;32.61;99640.97;2078665;28;19939;-62
2022/08/10 02:15:11;;;;;;;;;;;;;;;27.75;32.55;99638.22;2080537;28;20001;-62
2022/08/10 02:16:12;;;;;;;;;;;;;;;27.76;32.76;99642.69;2077633;28;19923;-62
2022/08/10 02:17:15;;;;;;;;;;;;;;;27.74;32.73;99644.81;2081082;28;19966;-62
2022/08/10 02:18:16;;;;;;;;;;;;;;;27.74;32.72;99650.38;2084685;28;20003;-62
2022/08/10 02:19:18;;;;;;;;;;;;;;;27.74;32.76;99650.38;2077977;28;19924;-62
2022/08/10 02:20:24;;;;;;;;;;;;;;;27.73;32.96;99640.38;2084059;28;19920;-62
2022/08/10 02:21:25;;;;;;;;;;;;;;;27.72;32.87;99649.72;2078723;28;20442;-62
2022/08/10 02:22:26;;;;;;;;;;;;;;;27.73;32.79;99648.69;2083578;28;20354;-62
2022/08/10 02:23:27;;;;;;;;;;;;;;;27.72;32.86;99646.13;2080036;28;20582;-62
2022/08/10 02:24:28;;;;;;;;;;;;;;;27.72;32.88;99652.50;2084933;28;20669;-62
2022/08/10 02:25:29;;;;;;;;;;;;;;;27.72;32.69;99646.97;2079710;28;20679;-62
2022/08/10 02:26:29;;;;;;;;;;;;;;;27.72;32.98;99646.97;2083045;28;19940;-62
2022/08/10 02:27:31;;;;;;;;;;;;;;;27.72;32.86;99646.13;2078637;28;19928;-63
2022/08/10 02:28:33;;;;;;;;;;;;;;;27.73;32.66;99647.81;2083446;28;20114;-62
2022/08/10 02:29:34;;;;;;;;;;;;;;;27.71;32.56;99645.28;2082573;28;20005;-62
2022/08/10 02:30:35;;;;;;;;;;;;;;;27.71;32.66;99645.28;2078759;28;19920;-62
2022/08/10 02:31:37;;;;;;;;;;;;;;;27.70;32.71;99643.56;2081197;28;19916;-62
2022/08/10 02:32:37;;;;;;;;;;;;;;;27.71;32.92;99645.28;2080662;28;19926;-62
2022/08/10 02:33:40;;;;;;;;;;;;;;;27.69;32.89;99641.03;2079378;28;19923;-62
2022/08/10 02:34:41;;;;;;;;;;;;;;;27.69;32.74;99641.88;2083336;28;20657;-62
2022/08/10 02:35:42;;;;;;;;;;;;;;;27.69;32.61;99641.88;2081046;28;20888;-62
2022/08/10 02:36:48;;;;;;;;;;;;;;;27.69;32.76;99646.56;2078430;28;19920;-62
2022/08/10 02:37:50;;;;;;;;;;;;;;;27.69;32.78;99647.41;2082462;28;19916;-61
2022/08/10 02:38:52;;;;;;;;;;;;;;;27.70;32.69;99649.09;2084041;28;19920;-62
2022/08/10 02:39:52;;;;;;;;;;;;;;;27.69;32.63;99646.56;2082114;28;19917;-62
2022/08/10 02:40:57;;;;;;;;;;;;;;;27.69;32.83;99641.88;2084560;28;19965;-62
2022/08/10 02:41:57;;;;;;;;;;;;;;;27.69;32.65;99647.41;2078787;28;19929;-62
2022/08/10 02:43:04;;;;;;;;;;;;;;;27.68;32.72;99651.22;2080471;28;19908;-62
2022/08/10 02:44:08;;;;;;;;;;;;;;;27.69;32.92;99647.41;2083214;28;19916;-62
2022/08/10 02:45:08;;;;;;;;;;;;;;;27.69;32.75;99649.31;2079892;28;20013;-62
2022/08/10 02:46:12;;;;;;;;;;;;;;;27.68;32.75;99650.38;2083366;28;19943;-62
2022/08/10 02:47:24;;;;;;;;;;;;;;;27.68;32.91;99642.06;2076834;28;20018;-62
2022/08/10 02:48:42;;;;;;;;;;;;;;;27.67;32.97;99648.69;2077464;28;20391;-62
2022/08/10 02:49:45;;;;;;;;;;;;;;;27.66;32.89;99647.84;2078944;28;20603;-62
2022/08/10 02:50:50;;;;;;;;;;;;;;;27.66;32.65;99647.84;2078590;28;20689;-62
2022/08/10 02:51:55;;;;;;;;;;;;;;;27.66;33.01;99647.84;2077030;28;19919;-62
2022/08/10 02:52:58;;;;;;;;;;;;;;;27.66;32.77;99653.38;2077746;28;19917;-62
2022/08/10 02:54:06;;;;;;;;;;;;;;;27.65;32.96;99657.19;2079504;28;19920;-62
2022/08/10 02:55:12;;;;;;;;;;;;;;;27.65;33.06;99648.03;2080354;28;20371;-62
2022/08/10 02:56:24;;;;;;;;;;;;;;;27.65;33.01;99651.66;2072651;28;19913;-62
2022/08/10 02:57:27;;;;;;;;;;;;;;;27.66;32.89;99641.44;2073080;28;19999;-62
2022/08/10 02:58:47;;;;;;;;;;;;;;;27.64;32.72;99649.97;2079579;28;20283;-62
2022/08/10 02:59:49;;;;;;;;;;;;;;;27.65;32.97;99639.75;2050255;28;19996;-62
2022/08/10 03:00:52;;;;;;;;;;;;;;;27.66;32.93;99642.31;2075714;28;20399;-62
2022/08/10 03:01:54;;;;;;;;;;;;;;;27.65;32.84;99643.34;2080547;28;19917;-62
2022/08/10 03:02:55;;;;;;;;;;;;;;;27.66;32.94;99644.19;2083360;28;19912;-62
2022/08/10 03:03:58;;;;;;;;;;;;;;;27.67;32.69;99643.16;2082920;28;19912;-62
2022/08/10 03:05:07;;;;;;;;;;;;;;;27.66;32.96;99642.31;2081091;28;19948;-62
2022/08/10 03:06:09;;;;;;;;;;;;;;;27.67;32.91;99645.91;2081285;28;20410;-62
2022/08/10 03:07:11;;;;;;;;;;;;;;;27.67;32.95;99648.69;2083609;28;20396;-62
2022/08/10 03:08:14;;;;;;;;;;;;;;;27.66;32.87;99647.84;2080410;28;19971;-62
2022/08/10 03:09:16;;;;;;;;;;;;;;;27.65;32.96;99646.13;2078101;28;20468;-62
2022/08/10 03:10:35;;;;;;;;;;;;;;;27.65;33.13;99651.66;2085419;28;20657;-62
2022/08/10 03:11:37;;;;;;;;;;;;;;;27.64;33.02;99649.97;2083771;28;19947;-62
2022/08/10 03:12:37;;;;;;;;;;;;;;;27.64;33.05;99655.50;2083184;28;20568;-62
2022/08/10 03:13:38;;;;;;;;;;;;;;;27.64;32.86;99644.44;2085155;28;19916;-62
2022/08/10 03:14:39;;;;;;;;;;;;;;;27.63;32.91;99651.03;2082905;28;19916;-62
2022/08/10 03:15:40;;;;;;;;;;;;;;;27.64;32.98;99641.66;2083211;28;20570;-62
2022/08/10 03:16:41;;;;;;;;;;;;;;;27.63;33.15;99642.72;2075905;28;19943;-62
2022/08/10 03:17:43;;;;;;;;;;;;;;;27.64;32.97;99649.13;2079633;28;19923;-62
2022/08/10 03:18:44;;;;;;;;;;;;;;;27.64;33.07;99649.13;2083498;28;19940;-62
2022/08/10 03:19:46;;;;;;;;;;;;;;;27.64;32.91;99649.97;2080655;28;19927;-62
2022/08/10 03:20:46;;;;;;;;;;;;;;;27.62;32.98;99652.09;2076999;28;19916;-62
2022/08/10 03:21:50;;;;;;;;;;;;;;;27.63;33.07;99647.41;2084970;28;19916;-62
2022/08/10 03:22:51;;;;;;;;;;;;;;;27.64;32.76;99649.13;2079936;28;19917;-62
2022/08/10 03:23:52;;;;;;;;;;;;;;;27.62;32.81;99643.81;2069718;28;19917;-62
2022/08/10 03:24:53;;;;;;;;;;;;;;;27.63;32.81;99652.94;2074072;28;19924;-62
2022/08/10 03:25:55;;;;;;;;;;;;;;;27.62;33.06;99652.09;2084358;28;19927;-62
2022/08/10 03:26:56;;;;;;;;;;;;;;;27.61;32.85;99644.00;2068810;28;19921;-62
2022/08/10 03:27:56;;;;;;;;;;;;;;;27.61;32.87;99644.00;2073046;28;19967;-62
2022/08/10 03:29:02;;;;;;;;;;;;;;;27.60;32.96;99640.38;2078441;28;19980;-62
2022/08/10 03:30:03;;;;;;;;;;;;;;;27.60;32.92;99639.53;2080577;28;19940;-62
2022/08/10 03:31:03;;;;;;;;;;;;;;;27.59;33.11;99635.94;2078906;28;19920;-62
2022/08/10 03:32:06;;;;;;;;;;;;;;;27.58;32.84;99637.84;2079069;28;20472;-62
2022/08/10 03:33:07;;;;;;;;;;;;;;;27.56;32.96;99637.22;2076950;28;19923;-62
2022/08/10 03:34:07;;;;;;;;;;;;;;;27.56;33.01;99630.81;2078473;28;20681;-62
2022/08/10 03:35:08;;;;;;;;;;;;;;;27.55;32.83;99634.66;2077701;28;20666;-62
2022/08/10 03:36:08;;;;;;;;;;;;;;;27.54;32.99;99632.97;2075384;28;20364;-62
2022/08/10 03:37:09;;;;;;;;;;;;;;;27.53;32.68;99631.25;2077350;28;20304;-62
2022/08/10 03:38:09;;;;;;;;;;;;;;;27.53;32.76;99636.78;2082844;28;19920;-62
2022/08/10 03:39:10;;;;;;;;;;;;;;;27.52;32.53;99635.94;2082017;28;19912;-62
2022/08/10 03:40:10;;;;;;;;;;;;;;;27.53;32.54;99628.47;2078520;28;19962;-62
2022/08/10 03:41:12;;;;;;;;;;;;;;;27.54;32.50;99638.50;2076943;28;19917;-62
2022/08/10 03:42:14;;;;;;;;;;;;;;;27.54;32.76;99633.81;2071684;28;19978;-62
2022/08/10 03:43:16;;;;;;;;;;;;;;;27.54;32.48;99641.28;2074508;28;19971;-62
2022/08/10 03:44:21;;;;;;;;;;;;;;;27.55;32.73;99645.72;2078693;28;19916;-62
2022/08/10 03:45:22;;;;;;;;;;;;;;;27.54;32.50;99644.03;2084151;28;20452;-62
2022/08/10 03:46:23;;;;;;;;;;;;;;;27.55;32.54;99640.19;2084172;28;20446;-62
2022/08/10 03:47:25;;;;;;;;;;;;;;;27.55;32.63;99640.19;2081032;28;19921;-62
2022/08/10 03:48:26;;;;;;;;;;;;;;;27.56;32.68;99644.66;2084488;28;19923;-62
2022/08/10 03:49:29;;;;;;;;;;;;;;;27.57;32.88;99643.59;2079480;28;19923;-62
2022/08/10 03:50:29;;;;;;;;;;;;;;;27.56;32.65;99642.75;2082044;28;19917;-61
2022/08/10 03:51:31;;;;;;;;;;;;;;;27.57;32.90;99640.84;2077962;28;19917;-62
2022/08/10 03:52:32;;;;;;;;;;;;;;;27.57;32.76;99643.59;2084017;28;20130;-62
2022/08/10 03:53:34;;;;;;;;;;;;;;;27.57;32.72;99643.59;2083675;28;19924;-62
2022/08/10 03:54:34;;;;;;;;;;;;;;;27.56;32.84;99641.88;2082094;28;19943;-62
2022/08/10 03:55:35;;;;;;;;;;;;;;;27.57;32.79;99655.53;2082580;28;19917;-62
2022/08/10 03:56:37;;;;;;;;;;;;;;;27.56;32.65;99653.84;2079743;28;19915;-62
2022/08/10 03:57:37;;;;;;;;;;;;;;;27.55;32.71;99652.13;2083153;28;19920;-62
2022/08/10 03:58:38;;;;;;;;;;;;;;;27.56;32.83;99650.19;2084012;28;19917;-61
2022/08/10 03:59:38;;;;;;;;;;;;;;;27.56;32.82;99658.50;2082047;28;20003;-62
2022/08/10 04:00:39;;;;;;;;;;;;;;;27.55;32.95;99645.72;2083356;28;19943;-62
2022/08/10 04:01:43;;;;;;;;;;;;;;;27.55;32.92;99656.81;2084761;28;20345;-62
2022/08/10 04:02:45;;;;;;;;;;;;;;;27.54;32.74;99657.88;2081707;28;20369;-62
2022/08/10 04:03:45;;;;;;;;;;;;;;;27.53;33.02;99653.41;2083152;28;19917;-62
2022/08/10 04:04:46;;;;;;;;;;;;;;;27.52;33.06;99651.72;2084028;28;19963;-62
2022/08/10 04:05:47;;;;;;;;;;;;;;;27.50;32.90;99654.69;2079194;28;20807;-62
2022/08/10 04:06:47;;;;;;;;;;;;;;;27.50;33.07;99653.84;2082480;28;20713;-62
2022/08/10 04:07:48;;;;;;;;;;;;;;;27.50;33.01;99653.84;2079706;28;20007;-62
2022/08/10 04:08:48;;;;;;;;;;;;;;;27.49;32.82;99657.69;2080056;28;19923;-62
2022/08/10 04:09:48;;;;;;;;;;;;;;;27.49;32.72;99663.22;2083227;28;19916;-62
2022/08/10 04:10:49;;;;;;;;;;;;;;;27.48;32.98;99662.34;2079292;28;19952;-62
2022/08/10 04:11:49;;;;;;;;;;;;;;;27.48;32.97;99658.72;2083706;28;19917;-62
2022/08/10 04:12:49;;;;;;;;;;;;;;;27.49;32.93;99660.44;2081463;28;19917;-62
2022/08/10 04:13:49;;;;;;;;;;;;;;;27.47;33.04;99659.81;2079943;28;19917;-62
2022/08/10 04:14:50;;;;;;;;;;;;;;;27.47;32.93;99663.44;2083368;28;19916;-62
2022/08/10 04:15:50;;;;;;;;;;;;;;;27.48;32.87;99667.03;2081319;28;19916;-62
2022/08/10 04:16:50;;;;;;;;;;;;;;;27.48;32.98;99661.50;2079518;28;19913;-62
2022/08/10 04:17:51;;;;;;;;;;;;;;;27.48;32.93;99661.50;2081510;28;19916;-62
2022/08/10 04:18:51;;;;;;;;;;;;;;;27.48;32.90;99661.50;2082843;28;19915;-62
2022/08/10 04:19:52;;;;;;;;;;;;;;;27.47;33.08;99665.34;2082968;28;19916;-62
2022/08/10 04:20:55;;;;;;;;;;;;;;;27.47;33.22;99659.81;2078977;28;19999;-62
2022/08/10 04:22:02;;;;;;;;;;;;;;;27.46;32.98;99669.16;2076989;28;19917;-62
2022/08/10 04:23:05;;;;;;;;;;;;;;;27.45;32.88;99660.03;2076538;28;19925;-62
2022/08/10 04:24:08;;;;;;;;;;;;;;;27.45;32.91;99660.03;2082010;28;19923;-62
2022/08/10 04:25:09;;;;;;;;;;;;;;;27.45;32.92;99662.78;2072793;28;19940;-62
2022/08/10 04:26:10;;;;;;;;;;;;;;;27.45;32.93;99660.03;2075420;28;19952;-62
2022/08/10 04:27:11;;;;;;;;;;;;;;;27.44;32.82;99658.31;2082861;28;20473;-62
2022/08/10 04:28:11;;;;;;;;;;;;;;;27.45;33.13;99664.72;2073417;28;19928;-62
2022/08/10 04:29:12;;;;;;;;;;;;;;;27.44;33.14;99666.63;2075107;28;19916;-62
2022/08/10 04:30:13;;;;;;;;;;;;;;;27.45;32.86;99667.47;2082089;28;19956;-62
2022/08/10 04:31:15;;;;;;;;;;;;;;;27.45;32.98;99671.09;2083903;28;20282;-62
2022/08/10 04:32:18;;;;;;;;;;;;;;;27.45;32.81;99667.47;2074170;28;20428;-62
2022/08/10 04:33:21;;;;;;;;;;;;;;;27.46;32.95;99671.94;2073283;28;20427;-62
2022/08/10 04:34:23;;;;;;;;;;;;;;;27.44;33.02;99672.16;2084572;28;19966;-62
2022/08/10 04:35:24;;;;;;;;;;;;;;;27.44;32.89;99671.28;2084706;28;19916;-62
2022/08/10 04:36:25;;;;;;;;;;;;;;;27.45;32.91;99678.53;2079413;28;19916;-62
2022/08/10 04:37:26;;;;;;;;;;;;;;;27.45;33.00;99673.00;2077180;28;19917;-62
2022/08/10 04:38:28;;;;;;;;;;;;;;;27.43;33.15;99669.59;2075404;28;20788;-62
2022/08/10 04:39:29;;;;;;;;;;;;;;;27.42;33.16;99681.75;2076713;28;19929;-62
2022/08/10 04:40:30;;;;;;;;;;;;;;;27.42;32.81;99679.00;2078572;28;20455;-62
2022/08/10 04:41:31;;;;;;;;;;;;;;;27.43;33.11;99680.69;2078254;28;19917;-62
2022/08/10 04:42:31;;;;;;;;;;;;;;;27.43;33.14;99687.06;2081245;28;19917;-62
2022/08/10 04:43:32;;;;;;;;;;;;;;;27.43;32.93;99681.53;2076701;28;19924;-62
2022/08/10 04:44:32;;;;;;;;;;;;;;;27.43;32.93;99686.22;2077114;28;19944;-62
2022/08/10 04:45:33;;;;;;;;;;;;;;;27.43;32.96;99680.69;2078409;28;19943;-62
2022/08/10 04:46:33;;;;;;;;;;;;;;;27.42;33.04;99673.44;2077457;28;20420;-62
2022/08/10 04:47:33;;;;;;;;;;;;;;;27.42;33.18;99673.44;2084057;28;19921;-62
2022/08/10 04:48:34;;;;;;;;;;;;;;;27.42;33.18;99676.22;2082219;28;19981;-62
2022/08/10 04:49:34;;;;;;;;;;;;;;;27.41;32.97;99678.09;2082722;28;21051;-62
2022/08/10 04:50:34;;;;;;;;;;;;;;;27.42;33.15;99679.00;2083518;28;19916;-62
2022/08/10 04:51:34;;;;;;;;;;;;;;;27.42;33.01;99681.75;2081832;28;20585;-62
2022/08/10 04:52:35;;;;;;;;;;;;;;;27.42;33.04;99679.00;2082854;28;20386;-61
2022/08/10 04:53:36;;;;;;;;;;;;;;;27.41;33.12;99688.34;2078674;28;20011;-62
2022/08/10 04:54:36;;;;;;;;;;;;;;;27.40;33.21;99678.34;2078830;28;19917;-62
2022/08/10 04:55:36;;;;;;;;;;;;;;;27.40;33.17;99686.66;2076376;28;19921;-62
2022/08/10 04:56:37;;;;;;;;;;;;;;;27.40;33.07;99683.88;2080450;28;20533;-62
2022/08/10 04:57:38;;;;;;;;;;;;;;;27.40;33.15;99681.97;2078467;28;19917;-62
2022/08/10 04:58:39;;;;;;;;;;;;;;;27.40;33.22;99681.97;2076948;28;19982;-62
2022/08/10 04:59:39;;;;;;;;;;;;;;;27.40;33.21;99689.41;2078266;28;19970;-61
2022/08/10 05:00:39;;;;;;;;;;;;;;;27.41;33.08;99688.34;2079463;28;19986;-62
2022/08/10 05:01:40;;;;;;;;;;;;;;;27.41;33.15;99688.34;2078780;28;19944;-62
2022/08/10 05:02:40;;;;;;;;;;;;;;;27.39;33.08;99688.56;2083723;28;19920;-62
2022/08/10 05:03:40;;;;;;;;;;;;;;;27.38;33.20;99689.63;2081439;28;19994;-62
2022/08/10 05:04:41;;;;;;;;;;;;;;;27.38;33.37;99686.00;2080492;28;19916;-62
2022/08/10 05:05:41;;;;;;;;;;;;;;;27.38;33.35;99694.31;2080302;28;20027;-62
2022/08/10 05:06:42;;;;;;;;;;;;;;;27.36;33.37;99687.09;2082824;28;19913;-62
2022/08/10 05:07:42;;;;;;;;;;;;;;;27.35;33.27;99685.38;2078812;28;20002;-62
2022/08/10 05:08:42;;;;;;;;;;;;;;;27.34;33.20;99693.88;2083206;28;19924;-62
2022/08/10 05:09:43;;;;;;;;;;;;;;;27.34;33.39;99694.75;2081093;28;19916;-62
2022/08/10 05:10:44;;;;;;;;;;;;;;;27.33;33.21;99690.25;2081097;28;19923;-62
2022/08/10 05:11:44;;;;;;;;;;;;;;;27.33;33.18;99690.25;2083177;28;19916;-62
2022/08/10 05:12:45;;;;;;;;;;;;;;;27.33;33.42;99693.03;2078436;28;19923;-62
2022/08/10 05:13:46;;;;;;;;;;;;;;;27.33;33.29;99695.78;2081616;28;19911;-62
2022/08/10 05:14:46;;;;;;;;;;;;;;;27.33;33.30;99693.03;2075109;28;19912;-61
2022/08/10 05:15:49;;;;;;;;;;;;;;;27.34;33.07;99693.88;2076475;28;19913;-62
2022/08/10 05:16:49;;;;;;;;;;;;;;;27.34;32.98;99703.03;2076009;28;20721;-62
2022/08/10 05:17:49;;;;;;;;;;;;;;;27.34;33.27;99694.75;2076783;28;20675;-62
2022/08/10 05:18:50;;;;;;;;;;;;;;;27.36;33.30;99692.63;2076762;28;19917;-62
2022/08/10 05:19:50;;;;;;;;;;;;;;;27.35;33.03;99695.59;2076877;28;19917;-62
2022/08/10 05:20:50;;;;;;;;;;;;;;;27.34;33.33;99689.22;2077689;28;19917;-62
2022/08/10 05:21:51;;;;;;;;;;;;;;;27.36;33.20;99691.75;2076280;28;19966;-62
2022/08/10 05:22:51;;;;;;;;;;;;;;;27.36;33.13;99698.16;2080962;28;19917;-62
2022/08/10 05:23:52;;;;;;;;;;;;;;;27.36;33.16;99692.63;2081659;28;19955;-61
2022/08/10 05:24:52;;;;;;;;;;;;;;;27.35;33.46;99696.44;2082658;28;19916;-62
2022/08/10 05:25:52;;;;;;;;;;;;;;;27.36;33.39;99698.16;2084193;28;19970;-62
2022/08/10 05:26:52;;;;;;;;;;;;;;;27.36;33.19;99692.63;2081112;28;19967;-62
2022/08/10 05:27:53;;;;;;;;;;;;;;;27.37;33.44;99699.00;2083814;28;19932;-62